sensor_id;sensor_type;location;lat;lon;timestamp;P1;durP1;ratioP1;P2;durP2;ratioP2
21661;SDS011;10992;48.170;8.596;2023-12-22T00:00:38;4.80;;;1.00;;
21661;SDS011;10992;48.170;8.596;2023-12-22T00:03:05;7.95;;;1.35;;
21661;SDS011;10992;48.170;8.596;2023-12-22T00:05:31;5.05;;;1.45;;
21661;SDS011;10992;48.170;8.596;2023-12-22T00:07:58;4.80;;;1.23;;
21661;SDS011;10992;48.170;8.596;2023-12-22T00:10:25;3.40;;;1.30;;
21661;SDS011;10992;48.170;8.596;2023-12-22T00:12:52;7.45;;;1.35;;
21661;SDS011;10992;48.170;8.596;2023-12-22T00:15:19;2.97;;;1.40;;
21661;SDS011;10992;48.170;8.596;2023-12-22T00:17:46;3.30;;;1.35;;
21661;SDS011;10992;48.170;8.596;2023-12-22T00:20:14;7.57;;;1.92;;
21661;SDS011;10992;48.170;8.596;2023-12-22T00:22:41;10.45;;;2.70;;
21661;SDS011;10992;48.170;8.596;2023-12-22T00:25:08;3.83;;;1.23;;
21661;SDS011;10992;48.170;8.596;2023-12-22T00:27:36;4.28;;;1.52;;
21661;SDS011;10992;48.170;8.596;2023-12-22T00:30:02;5.82;;;1.35;;
21661;SDS011;10992;48.170;8.596;2023-12-22T00:32:30;5.20;;;1.95;;
21661;SDS011;10992;48.170;8.596;2023-12-22T00:34:56;2.95;;;1.60;;
21661;SDS011;10992;48.170;8.596;2023-12-22T00:37:25;3.60;;;1.38;;
21661;SDS011;10992;48.170;8.596;2023-12-22T00:39:52;5.65;;;1.85;;
21661;SDS011;10992;48.170;8.596;2023-12-22T00:42:23;3.85;;;1.40;;
21661;SDS011;10992;48.170;8.596;2023-12-22T00:44:49;5.70;;;1.42;;
21661;SDS011;10992;48.170;8.596;2023-12-22T00:47:17;5.13;;;1.42;;
21661;SDS011;10992;48.170;8.596;2023-12-22T00:49:44;10.07;;;2.40;;
21661;SDS011;10992;48.170;8.596;2023-12-22T00:52:11;6.82;;;1.60;;
21661;SDS011;10992;48.170;8.596;2023-12-22T00:54:38;8.00;;;1.52;;
21661;SDS011;10992;48.170;8.596;2023-12-22T00:57:05;5.88;;;1.35;;
21661;SDS011;10992;48.170;8.596;2023-12-22T00:59:31;2.35;;;1.27;;
21661;SDS011;10992;48.170;8.596;2023-12-22T01:01:58;3.10;;;1.38;;
21661;SDS011;10992;48.170;8.596;2023-12-22T01:04:25;4.07;;;1.50;;
21661;SDS011;10992;48.170;8.596;2023-12-22T01:06:52;3.97;;;1.33;;
21661;SDS011;10992;48.170;8.596;2023-12-22T01:09:19;3.33;;;1.30;;
21661;SDS011;10992;48.170;8.596;2023-12-22T01:11:46;9.82;;;2.05;;
21661;SDS011;10992;48.170;8.596;2023-12-22T01:14:14;6.30;;;2.00;;
21661;SDS011;10992;48.170;8.596;2023-12-22T01:16:41;5.22;;;1.77;;
21661;SDS011;10992;48.170;8.596;2023-12-22T01:19:08;5.60;;;1.80;;
21661;SDS011;10992;48.170;8.596;2023-12-22T01:21:35;2.42;;;1.63;;
21661;SDS011;10992;48.170;8.596;2023-12-22T01:24:03;5.93;;;1.42;;
21661;SDS011;10992;48.170;8.596;2023-12-22T01:26:30;4.35;;;1.75;;
21661;SDS011;10992;48.170;8.596;2023-12-22T01:28:57;3.72;;;1.33;;
21661;SDS011;10992;48.170;8.596;2023-12-22T01:31:24;4.63;;;1.27;;
21661;SDS011;10992;48.170;8.596;2023-12-22T01:33:51;2.85;;;1.23;;
21661;SDS011;10992;48.170;8.596;2023-12-22T01:36:18;7.03;;;1.30;;
21661;SDS011;10992;48.170;8.596;2023-12-22T01:38:45;5.53;;;1.15;;
21661;SDS011;10992;48.170;8.596;2023-12-22T01:41:11;3.33;;;1.40;;
21661;SDS011;10992;48.170;8.596;2023-12-22T01:43:38;2.22;;;1.20;;
21661;SDS011;10992;48.170;8.596;2023-12-22T01:46:05;3.60;;;1.30;;
21661;SDS011;10992;48.170;8.596;2023-12-22T01:48:34;4.35;;;1.20;;
21661;SDS011;10992;48.170;8.596;2023-12-22T01:51:03;3.70;;;0.88;;
21661;SDS011;10992;48.170;8.596;2023-12-22T01:53:30;1.92;;;1.25;;
21661;SDS011;10992;48.170;8.596;2023-12-22T01:56:01;1.48;;;0.70;;
21661;SDS011;10992;48.170;8.596;2023-12-22T01:58:29;3.20;;;1.27;;
21661;SDS011;10992;48.170;8.596;2023-12-22T02:01:04;2.30;;;0.95;;
21661;SDS011;10992;48.170;8.596;2023-12-22T02:03:32;6.03;;;1.50;;
21661;SDS011;10992;48.170;8.596;2023-12-22T02:05:59;6.45;;;1.55;;
21661;SDS011;10992;48.170;8.596;2023-12-22T02:08:27;5.88;;;1.60;;
21661;SDS011;10992;48.170;8.596;2023-12-22T02:10:57;4.32;;;1.30;;
21661;SDS011;10992;48.170;8.596;2023-12-22T02:13:24;8.57;;;1.85;;
21661;SDS011;10992;48.170;8.596;2023-12-22T02:15:53;6.13;;;1.60;;
21661;SDS011;10992;48.170;8.596;2023-12-22T02:18:28;5.35;;;2.10;;
21661;SDS011;10992;48.170;8.596;2023-12-22T02:21:01;8.00;;;1.70;;
21661;SDS011;10992;48.170;8.596;2023-12-22T02:23:29;9.43;;;1.88;;
21661;SDS011;10992;48.170;8.596;2023-12-22T02:25:57;5.38;;;1.70;;
21661;SDS011;10992;48.170;8.596;2023-12-22T02:28:42;4.88;;;1.30;;
21661;SDS011;10992;48.170;8.596;2023-12-22T02:31:22;3.90;;;1.40;;
21661;SDS011;10992;48.170;8.596;2023-12-22T02:34:03;3.85;;;1.40;;
21661;SDS011;10992;48.170;8.596;2023-12-22T02:36:34;3.22;;;1.23;;
21661;SDS011;10992;48.170;8.596;2023-12-22T02:39:03;5.47;;;1.50;;
21661;SDS011;10992;48.170;8.596;2023-12-22T02:41:30;4.95;;;1.70;;
21661;SDS011;10992;48.170;8.596;2023-12-22T02:43:57;4.97;;;1.80;;
21661;SDS011;10992;48.170;8.596;2023-12-22T02:46:26;6.60;;;1.77;;
21661;SDS011;10992;48.170;8.596;2023-12-22T02:48:52;6.22;;;1.60;;
21661;SDS011;10992;48.170;8.596;2023-12-22T02:51:19;5.80;;;1.80;;
21661;SDS011;10992;48.170;8.596;2023-12-22T02:53:47;5.88;;;1.75;;
21661;SDS011;10992;48.170;8.596;2023-12-22T02:56:13;3.65;;;1.45;;
21661;SDS011;10992;48.170;8.596;2023-12-22T02:58:40;6.75;;;1.50;;
21661;SDS011;10992;48.170;8.596;2023-12-22T03:01:08;7.25;;;1.90;;
21661;SDS011;10992;48.170;8.596;2023-12-22T03:03:34;5.53;;;1.65;;
21661;SDS011;10992;48.170;8.596;2023-12-22T03:06:01;7.30;;;1.65;;
21661;SDS011;10992;48.170;8.596;2023-12-22T03:08:28;6.93;;;1.50;;
21661;SDS011;10992;48.170;8.596;2023-12-22T03:10:55;6.63;;;1.77;;
21661;SDS011;10992;48.170;8.596;2023-12-22T03:13:22;7.97;;;1.55;;
21661;SDS011;10992;48.170;8.596;2023-12-22T03:15:49;4.45;;;1.50;;
21661;SDS011;10992;48.170;8.596;2023-12-22T03:18:16;9.13;;;2.35;;
21661;SDS011;10992;48.170;8.596;2023-12-22T03:20:43;6.30;;;1.65;;
21661;SDS011;10992;48.170;8.596;2023-12-22T03:23:09;7.32;;;2.03;;
21661;SDS011;10992;48.170;8.596;2023-12-22T03:25:36;8.98;;;1.88;;
21661;SDS011;10992;48.170;8.596;2023-12-22T03:28:03;5.90;;;1.65;;
21661;SDS011;10992;48.170;8.596;2023-12-22T03:30:30;6.07;;;1.75;;
21661;SDS011;10992;48.170;8.596;2023-12-22T03:32:57;4.43;;;1.77;;
21661;SDS011;10992;48.170;8.596;2023-12-22T03:35:24;10.75;;;1.80;;
21661;SDS011;10992;48.170;8.596;2023-12-22T03:37:51;5.07;;;1.25;;
21661;SDS011;10992;48.170;8.596;2023-12-22T03:40:19;3.40;;;1.23;;
21661;SDS011;10992;48.170;8.596;2023-12-22T03:42:45;4.95;;;1.48;;
21661;SDS011;10992;48.170;8.596;2023-12-22T03:45:12;6.35;;;1.63;;
21661;SDS011;10992;48.170;8.596;2023-12-22T03:47:40;5.63;;;1.50;;
21661;SDS011;10992;48.170;8.596;2023-12-22T03:50:07;6.18;;;1.67;;
21661;SDS011;10992;48.170;8.596;2023-12-22T03:52:35;4.18;;;1.40;;
21661;SDS011;10992;48.170;8.596;2023-12-22T03:55:02;5.18;;;1.52;;
21661;SDS011;10992;48.170;8.596;2023-12-22T03:57:29;3.60;;;1.38;;
21661;SDS011;10992;48.170;8.596;2023-12-22T03:59:56;6.20;;;1.50;;
21661;SDS011;10992;48.170;8.596;2023-12-22T04:02:23;5.90;;;1.48;;
21661;SDS011;10992;48.170;8.596;2023-12-22T04:04:50;4.45;;;1.50;;
21661;SDS011;10992;48.170;8.596;2023-12-22T04:07:17;2.60;;;1.45;;
21661;SDS011;10992;48.170;8.596;2023-12-22T04:09:44;4.18;;;1.35;;
21661;SDS011;10992;48.170;8.596;2023-12-22T04:12:11;4.70;;;1.48;;
21661;SDS011;10992;48.170;8.596;2023-12-22T04:14:38;5.20;;;1.75;;
21661;SDS011;10992;48.170;8.596;2023-12-22T04:17:05;6.18;;;2.08;;
21661;SDS011;10992;48.170;8.596;2023-12-22T04:19:32;5.68;;;1.35;;
21661;SDS011;10992;48.170;8.596;2023-12-22T04:21:58;7.15;;;1.55;;
21661;SDS011;10992;48.170;8.596;2023-12-22T04:24:25;6.28;;;1.48;;
21661;SDS011;10992;48.170;8.596;2023-12-22T04:26:52;6.10;;;1.73;;
21661;SDS011;10992;48.170;8.596;2023-12-22T04:29:19;10.93;;;2.83;;
21661;SDS011;10992;48.170;8.596;2023-12-22T04:31:46;6.88;;;2.03;;
21661;SDS011;10992;48.170;8.596;2023-12-22T04:34:13;7.53;;;2.17;;
21661;SDS011;10992;48.170;8.596;2023-12-22T04:36:41;5.05;;;1.42;;
21661;SDS011;10992;48.170;8.596;2023-12-22T04:39:08;7.03;;;1.52;;
21661;SDS011;10992;48.170;8.596;2023-12-22T04:41:35;5.00;;;1.60;;
21661;SDS011;10992;48.170;8.596;2023-12-22T04:44:02;4.75;;;1.63;;
21661;SDS011;10992;48.170;8.596;2023-12-22T04:46:29;4.13;;;1.38;;
21661;SDS011;10992;48.170;8.596;2023-12-22T04:48:57;5.38;;;1.75;;
21661;SDS011;10992;48.170;8.596;2023-12-22T04:51:24;6.35;;;2.33;;
21661;SDS011;10992;48.170;8.596;2023-12-22T04:53:50;6.47;;;1.73;;
21661;SDS011;10992;48.170;8.596;2023-12-22T04:56:18;6.40;;;2.17;;
21661;SDS011;10992;48.170;8.596;2023-12-22T04:58:45;9.63;;;2.03;;
21661;SDS011;10992;48.170;8.596;2023-12-22T05:01:12;8.50;;;2.20;;
21661;SDS011;10992;48.170;8.596;2023-12-22T05:03:39;6.82;;;1.88;;
21661;SDS011;10992;48.170;8.596;2023-12-22T05:06:06;10.73;;;2.42;;
21661;SDS011;10992;48.170;8.596;2023-12-22T05:08:33;5.80;;;1.80;;
21661;SDS011;10992;48.170;8.596;2023-12-22T05:11:00;9.93;;;2.17;;
21661;SDS011;10992;48.170;8.596;2023-12-22T05:13:27;11.13;;;2.30;;
21661;SDS011;10992;48.170;8.596;2023-12-22T05:15:54;10.52;;;3.00;;
21661;SDS011;10992;48.170;8.596;2023-12-22T05:18:21;9.35;;;2.58;;
21661;SDS011;10992;48.170;8.596;2023-12-22T05:20:48;7.60;;;2.85;;
21661;SDS011;10992;48.170;8.596;2023-12-22T05:23:15;10.40;;;2.92;;
21661;SDS011;10992;48.170;8.596;2023-12-22T05:25:42;9.35;;;2.50;;
21661;SDS011;10992;48.170;8.596;2023-12-22T05:28:09;16.35;;;3.05;;
21661;SDS011;10992;48.170;8.596;2023-12-22T05:30:36;9.32;;;2.70;;
21661;SDS011;10992;48.170;8.596;2023-12-22T05:33:03;14.30;;;3.08;;
21661;SDS011;10992;48.170;8.596;2023-12-22T05:35:30;11.30;;;2.72;;
21661;SDS011;10992;48.170;8.596;2023-12-22T05:37:58;11.25;;;2.45;;
21661;SDS011;10992;48.170;8.596;2023-12-22T05:40:24;9.00;;;2.70;;
21661;SDS011;10992;48.170;8.596;2023-12-22T05:42:51;8.80;;;3.15;;
21661;SDS011;10992;48.170;8.596;2023-12-22T05:45:18;10.38;;;3.50;;
21661;SDS011;10992;48.170;8.596;2023-12-22T05:47:45;14.38;;;2.83;;
21661;SDS011;10992;48.170;8.596;2023-12-22T05:50:13;14.13;;;4.07;;
21661;SDS011;10992;48.170;8.596;2023-12-22T05:52:40;13.05;;;3.80;;
21661;SDS011;10992;48.170;8.596;2023-12-22T05:55:07;12.20;;;3.45;;
21661;SDS011;10992;48.170;8.596;2023-12-22T05:57:35;9.70;;;3.08;;
21661;SDS011;10992;48.170;8.596;2023-12-22T06:00:02;15.30;;;3.65;;
21661;SDS011;10992;48.170;8.596;2023-12-22T06:02:34;12.75;;;3.20;;
21661;SDS011;10992;48.170;8.596;2023-12-22T06:05:01;9.75;;;3.28;;
21661;SDS011;10992;48.170;8.596;2023-12-22T06:07:28;8.43;;;2.78;;
21661;SDS011;10992;48.170;8.596;2023-12-22T06:09:54;10.80;;;3.03;;
21661;SDS011;10992;48.170;8.596;2023-12-22T06:12:21;12.35;;;2.90;;
21661;SDS011;10992;48.170;8.596;2023-12-22T06:14:48;9.77;;;3.00;;
21661;SDS011;10992;48.170;8.596;2023-12-22T06:17:15;10.80;;;1.92;;
21661;SDS011;10992;48.170;8.596;2023-12-22T06:19:42;9.90;;;2.50;;
21661;SDS011;10992;48.170;8.596;2023-12-22T06:22:08;12.82;;;2.58;;
21661;SDS011;10992;48.170;8.596;2023-12-22T06:24:35;12.43;;;2.22;;
21661;SDS011;10992;48.170;8.596;2023-12-22T06:27:02;17.35;;;2.65;;
21661;SDS011;10992;48.170;8.596;2023-12-22T06:29:29;11.85;;;2.58;;
21661;SDS011;10992;48.170;8.596;2023-12-22T06:31:57;14.68;;;3.53;;
21661;SDS011;10992;48.170;8.596;2023-12-22T06:34:24;9.40;;;2.90;;
21661;SDS011;10992;48.170;8.596;2023-12-22T06:36:52;12.65;;;4.05;;
21661;SDS011;10992;48.170;8.596;2023-12-22T06:39:18;11.55;;;3.78;;
21661;SDS011;10992;48.170;8.596;2023-12-22T06:41:46;7.45;;;2.20;;
21661;SDS011;10992;48.170;8.596;2023-12-22T06:44:12;10.45;;;2.63;;
21661;SDS011;10992;48.170;8.596;2023-12-22T06:46:39;9.20;;;2.35;;
21661;SDS011;10992;48.170;8.596;2023-12-22T06:49:06;8.23;;;2.80;;
21661;SDS011;10992;48.170;8.596;2023-12-22T06:51:33;10.63;;;2.17;;
21661;SDS011;10992;48.170;8.596;2023-12-22T06:54:03;7.68;;;2.70;;
21661;SDS011;10992;48.170;8.596;2023-12-22T06:56:33;5.38;;;1.80;;
21661;SDS011;10992;48.170;8.596;2023-12-22T06:59:01;13.20;;;2.65;;
21661;SDS011;10992;48.170;8.596;2023-12-22T07:01:35;9.18;;;2.25;;
21661;SDS011;10992;48.170;8.596;2023-12-22T07:04:03;13.60;;;2.80;;
21661;SDS011;10992;48.170;8.596;2023-12-22T07:06:31;12.75;;;2.40;;
21661;SDS011;10992;48.170;8.596;2023-12-22T07:14:13;11.82;;;2.42;;
21661;SDS011;10992;48.170;8.596;2023-12-22T07:16:41;8.20;;;2.08;;
21661;SDS011;10992;48.170;8.596;2023-12-22T07:19:08;8.93;;;2.20;;
21661;SDS011;10992;48.170;8.596;2023-12-22T07:21:37;10.15;;;3.17;;
21661;SDS011;10992;48.170;8.596;2023-12-22T07:24:04;9.90;;;2.38;;
21661;SDS011;10992;48.170;8.596;2023-12-22T07:26:32;5.78;;;1.63;;
21661;SDS011;10992;48.170;8.596;2023-12-22T07:28:58;6.05;;;1.52;;
21661;SDS011;10992;48.170;8.596;2023-12-22T07:31:26;5.78;;;1.65;;
21661;SDS011;10992;48.170;8.596;2023-12-22T07:33:54;3.22;;;1.10;;
21661;SDS011;10992;48.170;8.596;2023-12-22T07:36:21;6.05;;;2.25;;
21661;SDS011;10992;48.170;8.596;2023-12-22T07:38:48;11.15;;;5.82;;
21661;SDS011;10992;48.170;8.596;2023-12-22T07:41:15;10.15;;;4.25;;
21661;SDS011;10992;48.170;8.596;2023-12-22T07:43:44;7.15;;;2.13;;
21661;SDS011;10992;48.170;8.596;2023-12-22T07:46:17;5.88;;;2.03;;
21661;SDS011;10992;48.170;8.596;2023-12-22T07:48:45;6.80;;;2.13;;
21661;SDS011;10992;48.170;8.596;2023-12-22T07:51:13;6.93;;;2.03;;
21661;SDS011;10992;48.170;8.596;2023-12-22T07:53:40;7.18;;;2.30;;
21661;SDS011;10992;48.170;8.596;2023-12-22T07:56:08;7.82;;;2.20;;
21661;SDS011;10992;48.170;8.596;2023-12-22T07:58:38;6.82;;;2.05;;
21661;SDS011;10992;48.170;8.596;2023-12-22T08:01:05;6.45;;;1.88;;
21661;SDS011;10992;48.170;8.596;2023-12-22T08:03:33;3.47;;;1.10;;
21661;SDS011;10992;48.170;8.596;2023-12-22T08:06:00;4.75;;;2.08;;
21661;SDS011;10992;48.170;8.596;2023-12-22T08:08:28;6.50;;;1.40;;
21661;SDS011;10992;48.170;8.596;2023-12-22T08:10:55;4.25;;;1.50;;
21661;SDS011;10992;48.170;8.596;2023-12-22T08:13:23;7.20;;;1.27;;
21661;SDS011;10992;48.170;8.596;2023-12-22T08:15:50;6.50;;;2.38;;
21661;SDS011;10992;48.170;8.596;2023-12-22T08:18:17;3.17;;;0.88;;
21661;SDS011;10992;48.170;8.596;2023-12-22T08:20:44;3.03;;;1.40;;
21661;SDS011;10992;48.170;8.596;2023-12-22T08:23:14;3.95;;;1.52;;
21661;SDS011;10992;48.170;8.596;2023-12-22T08:25:42;3.92;;;1.20;;
21661;SDS011;10992;48.170;8.596;2023-12-22T08:28:10;4.25;;;1.50;;
21661;SDS011;10992;48.170;8.596;2023-12-22T08:30:39;5.18;;;1.70;;
21661;SDS011;10992;48.170;8.596;2023-12-22T08:33:06;5.25;;;1.92;;
21661;SDS011;10992;48.170;8.596;2023-12-22T08:35:33;3.05;;;0.90;;
21661;SDS011;10992;48.170;8.596;2023-12-22T08:38:01;5.78;;;1.33;;
21661;SDS011;10992;48.170;8.596;2023-12-22T08:40:29;4.57;;;1.23;;
21661;SDS011;10992;48.170;8.596;2023-12-22T08:42:56;7.60;;;1.63;;
21661;SDS011;10992;48.170;8.596;2023-12-22T08:45:27;6.10;;;1.77;;
21661;SDS011;10992;48.170;8.596;2023-12-22T08:47:55;4.80;;;1.70;;
21661;SDS011;10992;48.170;8.596;2023-12-22T08:50:23;6.05;;;1.70;;
21661;SDS011;10992;48.170;8.596;2023-12-22T08:52:50;6.90;;;1.42;;
21661;SDS011;10992;48.170;8.596;2023-12-22T08:55:17;7.03;;;2.30;;
21661;SDS011;10992;48.170;8.596;2023-12-22T08:57:45;8.13;;;2.42;;
21661;SDS011;10992;48.170;8.596;2023-12-22T09:00:22;8.32;;;2.90;;
21661;SDS011;10992;48.170;8.596;2023-12-22T09:02:49;9.50;;;1.83;;
21661;SDS011;10992;48.170;8.596;2023-12-22T09:05:16;11.05;;;1.60;;
21661;SDS011;10992;48.170;8.596;2023-12-22T09:07:44;7.65;;;2.33;;
21661;SDS011;10992;48.170;8.596;2023-12-22T09:10:12;7.20;;;1.73;;
21661;SDS011;10992;48.170;8.596;2023-12-22T09:12:40;4.90;;;1.65;;
21661;SDS011;10992;48.170;8.596;2023-12-22T09:15:07;9.07;;;1.65;;
21661;SDS011;10992;48.170;8.596;2023-12-22T09:17:33;6.28;;;1.48;;
21661;SDS011;10992;48.170;8.596;2023-12-22T09:20:01;5.25;;;1.60;;
21661;SDS011;10992;48.170;8.596;2023-12-22T09:22:28;4.30;;;1.33;;
21661;SDS011;10992;48.170;8.596;2023-12-22T09:24:54;4.25;;;1.10;;
21661;SDS011;10992;48.170;8.596;2023-12-22T09:27:21;4.18;;;1.77;;
21661;SDS011;10992;48.170;8.596;2023-12-22T09:29:48;7.43;;;2.35;;
21661;SDS011;10992;48.170;8.596;2023-12-22T09:32:15;6.90;;;2.05;;
21661;SDS011;10992;48.170;8.596;2023-12-22T09:34:43;9.55;;;1.80;;
21661;SDS011;10992;48.170;8.596;2023-12-22T09:37:09;8.45;;;2.22;;
21661;SDS011;10992;48.170;8.596;2023-12-22T09:39:36;8.60;;;2.40;;
21661;SDS011;10992;48.170;8.596;2023-12-22T09:42:04;8.95;;;2.47;;
21661;SDS011;10992;48.170;8.596;2023-12-22T09:44:32;11.88;;;2.42;;
21661;SDS011;10992;48.170;8.596;2023-12-22T09:47:00;8.02;;;2.63;;
21661;SDS011;10992;48.170;8.596;2023-12-22T09:49:32;10.50;;;2.50;;
21661;SDS011;10992;48.170;8.596;2023-12-22T09:52:01;9.27;;;2.30;;
21661;SDS011;10992;48.170;8.596;2023-12-22T09:54:30;13.65;;;2.75;;
21661;SDS011;10992;48.170;8.596;2023-12-22T09:57:01;11.20;;;2.70;;
21661;SDS011;10992;48.170;8.596;2023-12-22T09:59:46;13.77;;;2.92;;
21661;SDS011;10992;48.170;8.596;2023-12-22T10:02:15;12.48;;;3.40;;
21661;SDS011;10992;48.170;8.596;2023-12-22T10:04:43;9.85;;;2.67;;
21661;SDS011;10992;48.170;8.596;2023-12-22T10:07:10;19.85;;;3.20;;
21661;SDS011;10992;48.170;8.596;2023-12-22T10:09:41;9.63;;;2.97;;
21661;SDS011;10992;48.170;8.596;2023-12-22T10:12:09;7.70;;;2.47;;
21661;SDS011;10992;48.170;8.596;2023-12-22T10:14:37;9.02;;;2.63;;
21661;SDS011;10992;48.170;8.596;2023-12-22T10:17:06;21.08;;;3.75;;
21661;SDS011;10992;48.170;8.596;2023-12-22T10:19:33;11.30;;;2.85;;
21661;SDS011;10992;48.170;8.596;2023-12-22T10:22:00;12.48;;;3.08;;
21661;SDS011;10992;48.170;8.596;2023-12-22T10:24:46;11.95;;;3.60;;
21661;SDS011;10992;48.170;8.596;2023-12-22T10:27:14;8.60;;;3.80;;
21661;SDS011;10992;48.170;8.596;2023-12-22T10:29:55;12.35;;;3.50;;
21661;SDS011;10992;48.170;8.596;2023-12-22T10:32:22;17.63;;;5.75;;
21661;SDS011;10992;48.170;8.596;2023-12-22T10:34:52;13.40;;;4.38;;
21661;SDS011;10992;48.170;8.596;2023-12-22T10:37:20;12.77;;;3.33;;
21661;SDS011;10992;48.170;8.596;2023-12-22T10:39:48;12.30;;;3.83;;
21661;SDS011;10992;48.170;8.596;2023-12-22T10:42:21;11.25;;;3.45;;
21661;SDS011;10992;48.170;8.596;2023-12-22T10:44:48;6.72;;;2.50;;
21661;SDS011;10992;48.170;8.596;2023-12-22T10:47:18;5.65;;;2.30;;
21661;SDS011;10992;48.170;8.596;2023-12-22T10:49:47;9.65;;;1.98;;
21661;SDS011;10992;48.170;8.596;2023-12-22T10:52:17;7.88;;;2.30;;
21661;SDS011;10992;48.170;8.596;2023-12-22T10:54:48;6.35;;;2.15;;
21661;SDS011;10992;48.170;8.596;2023-12-22T10:57:17;6.20;;;2.83;;
21661;SDS011;10992;48.170;8.596;2023-12-22T10:59:46;8.52;;;2.72;;
21661;SDS011;10992;48.170;8.596;2023-12-22T11:02:23;6.13;;;2.78;;
21661;SDS011;10992;48.170;8.596;2023-12-22T11:05:01;6.25;;;1.85;;
21661;SDS011;10992;48.170;8.596;2023-12-22T11:07:32;6.10;;;2.63;;
21661;SDS011;10992;48.170;8.596;2023-12-22T11:10:05;3.72;;;2.15;;
21661;SDS011;10992;48.170;8.596;2023-12-22T11:12:37;5.15;;;1.95;;
21661;SDS011;10992;48.170;8.596;2023-12-22T11:15:05;7.30;;;2.33;;
21661;SDS011;10992;48.170;8.596;2023-12-22T11:17:34;10.30;;;2.47;;
21661;SDS011;10992;48.170;8.596;2023-12-22T11:20:03;3.03;;;1.63;;
21661;SDS011;10992;48.170;8.596;2023-12-22T11:22:32;8.10;;;1.92;;
21661;SDS011;10992;48.170;8.596;2023-12-22T11:25:02;4.45;;;1.70;;
21661;SDS011;10992;48.170;8.596;2023-12-22T11:27:31;4.28;;;1.75;;
21661;SDS011;10992;48.170;8.596;2023-12-22T11:30:00;3.58;;;1.98;;
21661;SDS011;10992;48.170;8.596;2023-12-22T11:32:27;7.20;;;1.73;;
21661;SDS011;10992;48.170;8.596;2023-12-22T11:34:56;5.43;;;1.63;;
21661;SDS011;10992;48.170;8.596;2023-12-22T11:37:25;3.72;;;1.55;;
21661;SDS011;10992;48.170;8.596;2023-12-22T11:39:52;2.05;;;1.10;;
21661;SDS011;10992;48.170;8.596;2023-12-22T11:42:23;6.07;;;1.40;;
21661;SDS011;10992;48.170;8.596;2023-12-22T11:44:54;22.17;;;14.60;;
21661;SDS011;10992;48.170;8.596;2023-12-22T11:47:24;8.30;;;7.50;;
21661;SDS011;10992;48.170;8.596;2023-12-22T11:49:55;7.13;;;5.70;;
21661;SDS011;10992;48.170;8.596;2023-12-22T11:52:27;11.70;;;9.00;;
21661;SDS011;10992;48.170;8.596;2023-12-22T11:54:58;4.65;;;4.18;;
21661;SDS011;10992;48.170;8.596;2023-12-22T11:59:57;6.57;;;5.35;;
21661;SDS011;10992;48.170;8.596;2023-12-22T12:02:26;21.45;;;19.40;;
21661;SDS011;10992;48.170;8.596;2023-12-22T12:04:57;12.40;;;9.75;;
21661;SDS011;10992;48.170;8.596;2023-12-22T12:07:39;3.22;;;2.90;;
21661;SDS011;10992;48.170;8.596;2023-12-22T12:10:07;9.77;;;6.32;;
21661;SDS011;10992;48.170;8.596;2023-12-22T12:12:35;3.90;;;3.13;;
21661;SDS011;10992;48.170;8.596;2023-12-22T12:15:06;3.22;;;2.47;;
21661;SDS011;10992;48.170;8.596;2023-12-22T12:17:43;2.20;;;1.80;;
21661;SDS011;10992;48.170;8.596;2023-12-22T12:20:10;2.63;;;1.98;;
21661;SDS011;10992;48.170;8.596;2023-12-22T12:22:38;3.17;;;1.55;;
21661;SDS011;10992;48.170;8.596;2023-12-22T12:25:11;2.10;;;1.90;;
21661;SDS011;10992;48.170;8.596;2023-12-22T12:28:04;2.90;;;2.42;;
21661;SDS011;10992;48.170;8.596;2023-12-22T12:30:32;3.63;;;3.33;;
21661;SDS011;10992;48.170;8.596;2023-12-22T12:33:07;6.20;;;5.57;;
21661;SDS011;10992;48.170;8.596;2023-12-22T12:35:40;1.95;;;1.67;;
21661;SDS011;10992;48.170;8.596;2023-12-22T12:38:13;2.85;;;2.55;;
21661;SDS011;10992;48.170;8.596;2023-12-22T12:40:43;7.15;;;5.70;;
21661;SDS011;10992;48.170;8.596;2023-12-22T12:43:15;9.75;;;8.75;;
21661;SDS011;10992;48.170;8.596;2023-12-22T12:45:42;14.27;;;11.50;;
21661;SDS011;10992;48.170;8.596;2023-12-22T12:48:09;5.13;;;2.92;;
21661;SDS011;10992;48.170;8.596;2023-12-22T12:50:36;7.63;;;6.03;;
21661;SDS011;10992;48.170;8.596;2023-12-22T12:53:04;3.45;;;3.15;;
21661;SDS011;10992;48.170;8.596;2023-12-22T12:55:32;4.07;;;3.63;;
21661;SDS011;10992;48.170;8.596;2023-12-22T12:57:59;2.13;;;1.42;;
21661;SDS011;10992;48.170;8.596;2023-12-22T13:00:32;5.47;;;4.18;;
21661;SDS011;10992;48.170;8.596;2023-12-22T13:03:04;2.88;;;2.40;;
21661;SDS011;10992;48.170;8.596;2023-12-22T13:05:33;8.40;;;7.38;;
21661;SDS011;10992;48.170;8.596;2023-12-22T13:10:35;0.75;;;0.75;;
21661;SDS011;10992;48.170;8.596;2023-12-22T13:13:03;13.18;;;11.95;;
21661;SDS011;10992;48.170;8.596;2023-12-22T13:15:31;9.23;;;7.90;;
21661;SDS011;10992;48.170;8.596;2023-12-22T13:17:58;3.97;;;3.40;;
21661;SDS011;10992;48.170;8.596;2023-12-22T13:20:25;4.72;;;4.22;;
21661;SDS011;10992;48.170;8.596;2023-12-22T13:22:54;17.85;;;14.00;;
21661;SDS011;10992;48.170;8.596;2023-12-22T13:25:21;8.43;;;6.60;;
21661;SDS011;10992;48.170;8.596;2023-12-22T13:27:51;13.30;;;8.52;;
21661;SDS011;10992;48.170;8.596;2023-12-22T13:30:38;15.25;;;8.43;;
21661;SDS011;10992;48.170;8.596;2023-12-22T13:33:10;25.20;;;11.43;;
21661;SDS011;10992;48.170;8.596;2023-12-22T13:35:37;11.85;;;10.30;;
21661;SDS011;10992;48.170;8.596;2023-12-22T13:38:08;10.43;;;9.32;;
21661;SDS011;10992;48.170;8.596;2023-12-22T13:40:36;11.85;;;10.57;;
21661;SDS011;10992;48.170;8.596;2023-12-22T13:43:05;16.90;;;15.10;;
21661;SDS011;10992;48.170;8.596;2023-12-22T13:45:33;19.38;;;15.50;;
21661;SDS011;10992;48.170;8.596;2023-12-22T13:48:01;45.15;;;38.10;;
21661;SDS011;10992;48.170;8.596;2023-12-22T13:50:28;39.65;;;31.52;;
21661;SDS011;10992;48.170;8.596;2023-12-22T13:52:55;23.05;;;20.75;;
21661;SDS011;10992;48.170;8.596;2023-12-22T13:55:22;5.15;;;4.65;;
21661;SDS011;10992;48.170;8.596;2023-12-22T13:57:58;11.98;;;10.88;;
21661;SDS011;10992;48.170;8.596;2023-12-22T14:00:29;8.18;;;7.38;;
21661;SDS011;10992;48.170;8.596;2023-12-22T14:02:57;3.17;;;2.88;;
21661;SDS011;10992;48.170;8.596;2023-12-22T14:05:25;4.07;;;2.47;;
21661;SDS011;10992;48.170;8.596;2023-12-22T14:07:57;5.13;;;4.68;;
21661;SDS011;10992;48.170;8.596;2023-12-22T14:10:24;6.13;;;5.60;;
21661;SDS011;10992;48.170;8.596;2023-12-22T14:12:51;33.42;;;17.80;;
21661;SDS011;10992;48.170;8.596;2023-12-22T14:15:18;6.40;;;5.80;;
21661;SDS011;10992;48.170;8.596;2023-12-22T14:17:45;6.13;;;3.55;;
21661;SDS011;10992;48.170;8.596;2023-12-22T14:20:13;2.00;;;1.80;;
21661;SDS011;10992;48.170;8.596;2023-12-22T14:22:40;2.17;;;1.25;;
21661;SDS011;10992;48.170;8.596;2023-12-22T14:25:07;3.28;;;2.63;;
21661;SDS011;10992;48.170;8.596;2023-12-22T14:27:35;7.88;;;6.72;;
21661;SDS011;10992;48.170;8.596;2023-12-22T14:30:02;12.20;;;11.02;;
21661;SDS011;10992;48.170;8.596;2023-12-22T14:32:29;14.65;;;13.10;;
21661;SDS011;10992;48.170;8.596;2023-12-22T14:34:56;6.82;;;6.13;;
21661;SDS011;10992;48.170;8.596;2023-12-22T14:37:23;12.57;;;10.10;;
21661;SDS011;10992;48.170;8.596;2023-12-22T14:39:50;10.93;;;8.27;;
21661;SDS011;10992;48.170;8.596;2023-12-22T14:42:17;3.22;;;2.60;;
21661;SDS011;10992;48.170;8.596;2023-12-22T14:44:44;11.50;;;9.23;;
21661;SDS011;10992;48.170;8.596;2023-12-22T14:47:11;5.22;;;4.28;;
21661;SDS011;10992;48.170;8.596;2023-12-22T14:49:40;2.30;;;1.73;;
21661;SDS011;10992;48.170;8.596;2023-12-22T14:52:07;2.80;;;2.25;;
21661;SDS011;10992;48.170;8.596;2023-12-22T14:54:34;3.00;;;1.92;;
21661;SDS011;10992;48.170;8.596;2023-12-22T14:57:01;3.95;;;2.53;;
21661;SDS011;10992;48.170;8.596;2023-12-22T14:59:28;2.67;;;1.80;;